createdAt,value
2023-05-21T00:00:59.421Z,9.6447
2023-05-21T00:02:01.917Z,9.6553
2023-05-21T00:03:04.229Z,9.6722
2023-05-21T00:04:05.619Z,9.6751
2023-05-21T00:05:07.439Z,9.6663
2023-05-21T00:06:09.955Z,9.6522
2023-05-21T00:07:11.607Z,9.6567
2023-05-21T00:08:12.652Z,9.6543
2023-05-21T00:09:14.287Z,9.5970
2023-05-21T00:10:16.082Z,9.5945
2023-05-21T00:11:16.977Z,9.6039
2023-05-21T00:12:18.145Z,9.6198
2023-05-21T00:13:20.105Z,9.6208
2023-05-21T00:14:21.445Z,9.6170
2023-05-21T00:15:22.048Z,9.6163
2023-05-21T00:16:23.129Z,9.6008
2023-05-21T00:17:24.377Z,9.5724
2023-05-21T00:19:25.399Z,9.4788
2023-05-21T00:20:26.930Z,9.4048
2023-05-21T00:21:28.873Z,9.3460
2023-05-21T00:23:30.980Z,9.3144
2023-05-21T00:24:33.206Z,9.3033
2023-05-21T00:25:34.461Z,9.3155
2023-05-21T00:26:35.573Z,9.3400
2023-05-21T00:28:39.440Z,9.3710
2023-05-21T00:31:40.290Z,9.4042
2023-05-21T00:32:41.291Z,9.4216
2023-05-21T00:33:43.972Z,9.4517
2023-05-21T00:34:44.143Z,9.4866
2023-05-21T00:35:45.897Z,9.5374
2023-05-21T00:36:47.090Z,9.5809
2023-05-21T00:37:48.274Z,9.6046
2023-05-21T00:38:51.017Z,9.6355
2023-05-21T00:39:51.919Z,9.6515
2023-05-21T00:40:52.943Z,9.6489
2023-05-21T00:41:54.764Z,9.6605
2023-05-21T00:42:56.114Z,9.7551
2023-05-21T00:43:58.210Z,9.8753
2023-05-21T00:44:59.841Z,9.9474
2023-05-21T00:46:00.743Z,10.0091
2023-05-21T00:47:02.529Z,10.0375
2023-05-21T00:48:03.853Z,10.0685
2023-05-21T00:49:05.032Z,10.0158
2023-05-21T00:50:06.965Z,9.9969
2023-05-21T00:51:09.430Z,10.0290
2023-05-21T00:52:10.460Z,10.0440
2023-05-21T00:53:11.505Z,9.9942
2023-05-21T00:54:13.298Z,10.0270
2023-05-21T00:55:15.251Z,10.0590
2023-05-21T00:56:16.292Z,10.0632
2023-05-21T00:57:16.924Z,10.0069
2023-05-21T00:58:19.154Z,9.9141
2023-05-21T00:59:20.367Z,9.8606
2023-05-21T01:00:21.697Z,9.8711
2023-05-21T01:01:23.832Z,9.9490
2023-05-21T01:02:25.744Z,10.0513
2023-05-21T01:03:27.292Z,10.1021
2023-05-21T01:04:29.204Z,10.1752
2023-05-21T01:05:30.847Z,10.2471
2023-05-21T01:06:32.522Z,10.3287
2023-05-21T01:07:33.512Z,10.3900
2023-05-21T01:08:35.009Z,10.4429
2023-05-21T01:09:37.425Z,10.4924
2023-05-21T01:18:46.235Z,11.0794
2023-05-21T01:19:46.611Z,11.0814
2023-05-21T01:23:48.022Z,11.1574
2023-05-21T01:24:49.630Z,11.1754
2023-05-21T01:28:52.778Z,11.2208
2023-05-21T01:29:53.668Z,11.2683
2023-05-21T01:30:55.868Z,11.2823
2023-05-21T01:31:58.077Z,11.3146
2023-05-21T01:32:59.345Z,11.3562
2023-05-21T01:34:01.706Z,11.3660
2023-05-21T01:37:05.221Z,11.3406
2023-05-21T01:38:07.109Z,11.3438
2023-05-21T01:40:08.093Z,11.3337
2023-05-21T01:41:09.994Z,11.3182
2023-05-21T01:42:10.877Z,11.2872
2023-05-21T01:43:11.984Z,11.2613
2023-05-21T01:44:13.743Z,11.2225
2023-05-21T01:45:15.652Z,11.2190
2023-05-21T01:46:16.689Z,11.2549
2023-05-21T01:47:17.700Z,11.2712
2023-05-21T01:48:18.689Z,11.2866
2023-05-21T01:49:20.570Z,11.2912
2023-05-21T01:54:24.285Z,11.1528
2023-05-21T01:55:25.485Z,11.1152
2023-05-21T01:56:27.347Z,11.0697
2023-05-21T01:57:28.310Z,11.0525
2023-05-21T01:58:30.542Z,11.0175
2023-05-21T01:59:31.769Z,10.9750
2023-05-21T02:00:33.465Z,10.9360
2023-05-21T02:01:36.019Z,10.8757
2023-05-21T02:02:36.712Z,10.7898
2023-05-21T02:03:36.789Z,10.7214
2023-05-21T02:04:39.297Z,10.6236
2023-05-21T02:05:39.585Z,10.5767
2023-05-21T02:06:40.592Z,10.5396
2023-05-21T02:07:42.501Z,10.4848
2023-05-21T02:08:43.301Z,10.4406
2023-05-21T02:15:51.270Z,10.3210
2023-05-21T02:16:53.394Z,10.3573
2023-05-21T02:17:55.966Z,10.3771
2023-05-21T02:20:58.235Z,10.3900
2023-05-21T02:21:59.405Z,10.3689
2023-05-21T02:23:00.334Z,10.3449
2023-05-21T02:24:02.406Z,10.3206
2023-05-21T02:25:06.979Z,10.3716
2023-05-21T02:27:04.672Z,10.4771
2023-05-21T02:28:06.845Z,10.5995
2023-05-21T02:29:08.143Z,10.7409
2023-05-21T02:31:11.473Z,10.7229
2023-05-21T02:34:14.275Z,10.5670
2023-05-21T02:35:15.462Z,10.5295
2023-05-21T02:36:16.436Z,10.5461
2023-05-21T02:37:18.886Z,10.5515
2023-05-21T02:38:20.496Z,10.4915
2023-05-21T02:39:21.982Z,10.4686
2023-05-21T02:40:22.356Z,10.4226
2023-05-21T02:41:23.480Z,10.3854
2023-05-21T02:42:25.124Z,10.2716
2023-05-21T02:43:26.112Z,10.2455
2023-05-21T02:44:28.288Z,10.2004
2023-05-21T02:45:29.597Z,10.1206
2023-05-21T02:46:30.745Z,9.9968
2023-05-21T02:47:32.678Z,9.9827
2023-05-21T02:48:33.519Z,9.9229
2023-05-21T02:49:35.538Z,9.9608
2023-05-21T02:57:43.679Z,9.4449
2023-05-21T02:58:45.712Z,9.4533
2023-05-21T02:59:47.287Z,9.4381
2023-05-21T03:00:48.357Z,9.2975
2023-05-21T03:01:50.760Z,9.1455
2023-05-21T03:02:50.943Z,8.9535
2023-05-21T03:03:52.610Z,8.9844
2023-05-21T03:04:54.350Z,9.0841
2023-05-21T03:05:56.187Z,9.1347
2023-05-21T03:06:56.931Z,9.1706
2023-05-21T03:07:58.352Z,9.1884
2023-05-21T03:09:00.577Z,9.1783
2023-05-21T03:10:01.606Z,9.2162
2023-05-21T03:11:03.177Z,9.1681
2023-05-21T03:12:04.711Z,9.1785
2023-05-21T03:13:08.195Z,9.2141
2023-05-21T03:14:07.856Z,9.2269
2023-05-21T03:17:40.370Z,9.4659
2023-05-21T03:18:40.549Z,9.4366
2023-05-21T03:19:41.828Z,9.4244
2023-05-21T03:20:42.794Z,9.2758
2023-05-21T03:21:44.053Z,9.1280
2023-05-21T03:23:46.688Z,8.8405
2023-05-21T03:24:48.001Z,8.8721
2023-05-21T03:25:49.525Z,8.8603
2023-05-21T03:26:50.586Z,8.7360
2023-05-21T03:27:51.549Z,8.7071
2023-05-21T03:28:53.070Z,8.6901
2023-05-21T03:29:55.020Z,8.7151
2023-05-21T03:30:56.447Z,8.6428
2023-05-21T03:31:57.735Z,8.4762
2023-05-21T03:32:59.202Z,8.5639
2023-05-21T03:34:00.671Z,8.5689
2023-05-21T03:35:01.869Z,8.4869
2023-05-21T03:36:03.487Z,8.4298
2023-05-21T03:37:04.498Z,8.4673
2023-05-21T03:38:05.650Z,8.3926
2023-05-21T03:39:06.953Z,8.2654
2023-05-21T03:40:08.336Z,8.1793
2023-05-21T03:41:10.435Z,8.0620
2023-05-21T03:42:10.474Z,7.9849
2023-05-21T03:43:11.554Z,7.9530
2023-05-21T03:44:12.222Z,7.8847
2023-05-21T03:45:12.922Z,7.8489
2023-05-21T03:46:13.866Z,7.8113
2023-05-21T03:47:14.110Z,7.7695
2023-05-21T03:48:15.315Z,7.7152
2023-05-21T03:49:16.955Z,7.6454
2023-05-21T03:50:17.964Z,7.6382
2023-05-21T03:51:18.511Z,7.5708
2023-05-21T03:52:20.766Z,7.5002
2023-05-21T03:53:21.391Z,7.4115
2023-05-21T03:54:22.595Z,7.3596
2023-05-21T03:55:23.741Z,7.3233
2023-05-21T03:56:25.184Z,7.2835
2023-05-21T03:57:26.264Z,7.2667
2023-05-21T03:58:27.878Z,7.2004
2023-05-21T03:59:30.194Z,7.1828
2023-05-21T04:01:30.469Z,7.1233
2023-05-21T04:02:32.028Z,7.1833
2023-05-21T04:10:41.227Z,7.1855
2023-05-21T04:11:42.133Z,7.1065
2023-05-21T04:12:43.700Z,7.1323
2023-05-21T04:13:45.412Z,7.1574
2023-05-21T04:15:47.113Z,7.3801
2023-05-21T04:16:49.725Z,7.4080
2023-05-21T04:22:56.654Z,7.5251
2023-05-21T04:23:56.730Z,7.5534
2023-05-21T04:25:57.010Z,7.6107
2023-05-21T04:26:58.506Z,7.6441
2023-05-21T04:28:00.055Z,7.7006
2023-05-21T04:29:02.475Z,7.7695
2023-05-21T04:30:04.025Z,7.8258
2023-05-21T04:31:06.209Z,7.8409
2023-05-21T04:32:06.241Z,7.8882
2023-05-21T04:33:08.472Z,7.9784
2023-05-21T04:34:10.422Z,8.1127
2023-05-21T04:36:10.621Z,8.2815
2023-05-21T04:37:12.337Z,8.5797
2023-05-21T04:38:14.598Z,8.7688
2023-05-21T04:39:15.247Z,8.9876
2023-05-21T04:40:17.079Z,9.3242
2023-05-21T04:41:19.118Z,9.6002
2023-05-21T04:42:20.332Z,9.6512
2023-05-21T04:43:23.114Z,9.7000
2023-05-21T04:44:25.268Z,9.7901
2023-05-21T04:50:29.835Z,10.5810
2023-05-21T04:51:31.179Z,10.6747
2023-05-21T04:52:32.958Z,10.7487
2023-05-21T04:53:34.955Z,10.7944
2023-05-21T04:54:36.156Z,10.8152
2023-05-21T04:55:38.429Z,10.8128
2023-05-21T04:58:40.093Z,10.9135
2023-05-21T04:59:40.980Z,10.9895
2023-05-21T05:00:41.853Z,11.0660
2023-05-21T05:01:42.915Z,11.1504
2023-05-21T05:02:44.806Z,11.2104
2023-05-21T05:03:46.462Z,11.2363
2023-05-21T05:04:48.095Z,11.1858
2023-05-21T05:05:49.253Z,11.2552
2023-05-21T05:06:49.486Z,11.2782
2023-05-21T05:07:49.492Z,11.3387
2023-05-21T05:08:51.020Z,11.4490
2023-05-21T05:09:53.252Z,11.5171
2023-05-21T05:10:54.247Z,11.5984
2023-05-21T05:11:56.750Z,11.6693
2023-05-21T05:12:58.922Z,11.6234
2023-05-21T05:14:00.222Z,11.6314
2023-05-21T05:15:02.659Z,11.6342
2023-05-21T05:25:15.206Z,12.4429
2023-05-21T05:26:16.692Z,12.5148
2023-05-21T05:27:19.070Z,12.5815
2023-05-21T05:29:20.718Z,12.7086
2023-05-21T05:30:21.670Z,12.7436
2023-05-21T05:31:22.735Z,12.8168
2023-05-21T05:32:24.474Z,12.8686
2023-05-21T05:33:26.096Z,12.9154
2023-05-21T05:34:28.112Z,12.9570
2023-05-21T05:35:29.080Z,12.9951
2023-05-21T05:36:29.546Z,13.0431
2023-05-21T05:37:31.940Z,13.1010
2023-05-21T05:38:32.927Z,13.1506
2023-05-21T05:39:33.925Z,13.2073
2023-05-21T05:40:35.657Z,13.2533
2023-05-21T05:41:36.803Z,13.3217
2023-05-21T05:42:37.718Z,13.3755
2023-05-21T05:43:38.699Z,13.4333
2023-05-21T05:44:40.774Z,13.4478
2023-05-21T05:49:45.000Z,13.6500
2023-05-21T05:50:45.958Z,13.6863
2023-05-21T05:51:46.747Z,13.7520
2023-05-21T05:52:48.290Z,13.8114
2023-05-21T05:54:50.087Z,13.8960
2023-05-21T05:55:51.604Z,13.9436
2023-05-21T05:56:53.209Z,14.0000
2023-05-21T05:57:54.142Z,14.0554
2023-05-21T05:58:55.043Z,14.0874
2023-05-21T05:59:56.666Z,14.1550
2023-05-21T06:00:57.584Z,14.2159
2023-05-21T06:01:58.103Z,14.2955
2023-05-21T06:02:59.161Z,14.3304
2023-05-21T06:04:00.413Z,14.3780
2023-05-21T06:05:01.959Z,14.4272
2023-05-21T06:06:04.004Z,14.4781
2023-05-21T06:14:10.232Z,14.6962
2023-05-21T06:15:15.931Z,14.7360
2023-05-21T06:18:13.771Z,14.8730
2023-05-21T06:19:14.924Z,14.8876
2023-05-21T06:20:17.152Z,14.9300
2023-05-21T06:21:17.277Z,14.9957
2023-05-21T06:22:18.398Z,15.0086
2023-05-21T06:23:19.812Z,15.0527
2023-05-21T06:24:21.056Z,15.1289
2023-05-21T06:25:21.608Z,15.2167
2023-05-21T06:26:23.056Z,15.3169
2023-05-21T06:27:25.918Z,15.3940
2023-05-21T06:28:27.225Z,15.5375
2023-05-21T06:29:28.605Z,15.6505
2023-05-21T06:30:30.716Z,15.7489
2023-05-21T06:31:32.470Z,15.7054
2023-05-21T06:32:35.253Z,15.8154
2023-05-21T06:41:44.128Z,15.1880
2023-05-21T06:42:45.468Z,15.3829
2023-05-21T06:43:47.034Z,15.2464
2023-05-21T06:44:49.172Z,14.9678
2023-05-21T06:45:49.219Z,15.0477
2023-05-21T06:47:51.475Z,15.0369
2023-05-21T06:48:51.891Z,15.0044
2023-05-21T06:50:52.485Z,15.2788
2023-05-21T06:51:55.384Z,15.1531
2023-05-21T06:53:57.657Z,15.2431
2023-05-21T06:54:59.866Z,15.0636
2023-05-21T06:56:00.476Z,15.1014
2023-05-21T06:57:00.907Z,14.9174
2023-05-21T06:58:02.746Z,15.0466
2023-05-21T06:59:05.016Z,15.0668
2023-05-21T07:00:05.037Z,15.1377
2023-05-21T07:02:08.145Z,15.0750
2023-05-21T07:03:09.903Z,15.2716
2023-05-21T07:04:10.664Z,15.2600
2023-05-21T07:05:12.740Z,15.3499
2023-05-21T07:06:12.878Z,15.2935
2023-05-21T07:07:14.619Z,15.1977
2023-05-21T07:08:17.100Z,15.0406
2023-05-21T07:09:17.882Z,15.1496
2023-05-21T07:12:22.100Z,15.1434
2023-05-21T07:13:22.654Z,15.1889
2023-05-21T07:19:31.088Z,16.2754
2023-05-21T07:25:38.469Z,15.9541
2023-05-21T07:26:39.685Z,15.9391
2023-05-21T07:27:40.467Z,16.2145
2023-05-21T07:28:41.253Z,15.9865
2023-05-21T07:29:44.172Z,15.9478
2023-05-21T07:30:44.430Z,15.8395
2023-05-21T07:31:45.676Z,15.9195
2023-05-21T07:32:46.999Z,16.2490
2023-05-21T07:33:48.759Z,16.5344
2023-05-21T07:34:49.646Z,16.7331
2023-05-21T07:36:51.030Z,16.6227
2023-05-21T07:39:52.865Z,16.5760
2023-05-21T07:40:54.526Z,16.6437
2023-05-21T07:41:56.604Z,16.8456
2023-05-21T07:47:02.446Z,16.6198
2023-05-21T07:48:04.637Z,17.1835
2023-05-21T07:50:06.418Z,17.6269
2023-05-21T07:51:06.954Z,17.6060
2023-05-21T07:53:08.782Z,17.4420
2023-05-21T07:54:09.474Z,17.5607
2023-05-21T07:56:09.804Z,17.6962
2023-05-21T07:57:10.557Z,17.7660
2023-05-21T07:58:11.308Z,17.6558
2023-05-21T07:59:13.896Z,17.4939
2023-05-21T08:00:13.818Z,17.5316
2023-05-21T08:05:17.698Z,17.5783
2023-05-21T08:06:17.780Z,17.5405
2023-05-21T08:07:19.911Z,17.6653
2023-05-21T08:08:20.600Z,17.4732
2023-05-21T08:09:20.699Z,17.5860
2023-05-21T08:10:20.877Z,17.6070
2023-05-21T08:11:22.625Z,17.7315
2023-05-21T08:12:23.383Z,18.0609
2023-05-21T08:14:24.431Z,18.0683
2023-05-21T08:15:25.467Z,18.5999
2023-05-21T08:16:26.680Z,18.7099
2023-05-21T08:17:29.315Z,19.0297
2023-05-21T08:18:29.719Z,19.3538
2023-05-21T08:19:30.599Z,19.6749
2023-05-21T08:20:33.184Z,19.8833
2023-05-21T08:21:33.581Z,20.2571
2023-05-21T08:22:34.161Z,20.2956
2023-05-21T08:23:35.153Z,19.3836
2023-05-21T08:24:35.366Z,19.0219
2023-05-21T08:25:36.586Z,19.1798
2023-05-21T08:26:37.421Z,19.5849
2023-05-21T08:28:39.313Z,20.1621
2023-05-21T08:29:41.453Z,20.1218
2023-05-21T08:30:42.041Z,20.7986
2023-05-21T08:32:45.228Z,21.3915
2023-05-21T08:33:46.316Z,20.9103
2023-05-21T08:41:50.154Z,22.5685
2023-05-21T08:42:51.935Z,21.6320
2023-05-21T08:43:54.901Z,21.0840
2023-05-21T08:44:53.684Z,21.6628
2023-05-21T08:45:56.029Z,21.9667
2023-05-21T08:46:56.511Z,22.3633
2023-05-21T08:47:59.189Z,22.9288
2023-05-21T08:49:00.157Z,23.3178
2023-05-21T08:50:01.970Z,22.6133
2023-05-21T08:51:02.785Z,22.4596
2023-05-21T08:52:03.807Z,22.0862
2023-05-21T08:53:12.721Z,21.8498
2023-05-21T08:55:07.229Z,21.5016
2023-05-21T09:01:19.800Z,20.3952
2023-05-21T09:02:19.671Z,20.6491
2023-05-21T09:03:21.915Z,21.1084
2023-05-21T09:04:23.513Z,21.0686
2023-05-21T09:05:23.749Z,20.9718
2023-05-21T09:06:25.997Z,21.0043
2023-05-21T09:07:26.982Z,21.6661
2023-05-21T09:08:28.198Z,22.4811
2023-05-21T09:09:29.548Z,23.0754
2023-05-21T09:10:30.983Z,23.6079
2023-05-21T09:11:31.477Z,23.8578
2023-05-21T09:12:33.610Z,23.6897
2023-05-21T09:13:39.266Z,23.8669
2023-05-21T09:21:42.911Z,24.7910
2023-05-21T09:22:44.157Z,24.8704
2023-05-21T09:24:46.076Z,24.0069
2023-05-21T09:25:47.369Z,23.7722
2023-05-21T09:26:47.701Z,23.8031
2023-05-21T09:27:49.970Z,23.2439
2023-05-21T09:28:51.719Z,22.3720
2023-05-21T09:29:53.359Z,22.7221
2023-05-21T09:30:59.976Z,22.5924
2023-05-21T09:38:04.122Z,23.6634
2023-05-21T09:39:06.252Z,24.2787
2023-05-21T09:40:07.625Z,24.6380
2023-05-21T09:41:09.638Z,25.0328
2023-05-21T09:42:11.909Z,24.9468
2023-05-21T09:43:13.072Z,25.1966
2023-05-21T09:44:15.650Z,24.2650
2023-05-21T09:45:17.614Z,23.1716
2023-05-21T09:47:19.543Z,22.7146
2023-05-21T09:48:19.901Z,23.3482
2023-05-21T09:49:20.988Z,22.4370
2023-05-21T09:50:23.247Z,22.9008
2023-05-21T09:51:23.463Z,23.3423
2023-05-21T09:52:23.589Z,22.9276
2023-05-21T09:53:25.225Z,23.2241
2023-05-21T09:54:26.625Z,22.6232
2023-05-21T09:55:28.325Z,22.5433
2023-05-21T09:56:29.639Z,23.1261
2023-05-21T09:57:29.670Z,23.0202
2023-05-21T09:58:31.549Z,22.7544
2023-05-21T09:59:33.472Z,23.2297
2023-05-21T10:00:34.155Z,23.0759
2023-05-21T10:01:35.647Z,23.0899
2023-05-21T10:02:38.153Z,23.5286
2023-05-21T10:03:39.989Z,23.9873
2023-05-21T10:04:41.321Z,24.2289
2023-05-21T10:05:42.406Z,24.5227
2023-05-21T10:06:44.324Z,24.6363
2023-05-21T10:07:46.403Z,24.7929
2023-05-21T10:10:49.211Z,25.1504
2023-05-21T10:11:49.474Z,25.1050
2023-05-21T10:13:50.986Z,24.7160
2023-05-21T10:15:51.888Z,24.5802
2023-05-21T10:16:53.942Z,24.7886
2023-05-21T10:17:55.533Z,24.7845
2023-05-21T10:18:56.707Z,24.7790
2023-05-21T10:19:58.133Z,25.1095
2023-05-21T10:20:58.385Z,24.5533
2023-05-21T10:21:59.339Z,24.0995
2023-05-21T10:23:00.606Z,23.9778
2023-05-21T10:24:01.194Z,24.1549
2023-05-21T10:25:01.782Z,24.1952
2023-05-21T10:26:04.019Z,23.9384
2023-05-21T10:27:04.097Z,23.8863
2023-05-21T10:28:07.166Z,23.6603
2023-05-21T10:30:11.827Z,23.1839
2023-05-21T10:35:12.376Z,23.5434
2023-05-21T10:36:13.922Z,23.6266
2023-05-21T10:38:15.252Z,24.2803
2023-05-21T10:41:29.918Z,24.4629
2023-05-21T10:49:33.106Z,25.6842
2023-05-21T10:50:33.712Z,25.4933
2023-05-21T10:51:35.075Z,25.2595
2023-05-21T10:52:37.245Z,25.6039
2023-05-21T10:53:37.935Z,25.5843
2023-05-21T10:54:38.541Z,25.2918
2023-05-21T10:55:38.958Z,25.2115
2023-05-21T10:56:39.644Z,24.7565
2023-05-21T10:57:41.911Z,24.1392
2023-05-21T11:00:43.730Z,23.2476
2023-05-21T11:01:45.858Z,23.0653
2023-05-21T11:02:46.759Z,22.7170
2023-05-21T11:04:48.082Z,23.5257
2023-05-21T11:05:48.920Z,23.7831
2023-05-21T11:06:49.762Z,23.9101
2023-05-21T11:07:51.207Z,24.1583
2023-05-21T11:08:53.788Z,24.4342
2023-05-21T11:09:53.015Z,24.5711
2023-05-21T11:10:53.262Z,24.6230
2023-05-21T11:16:59.715Z,23.5505
2023-05-21T11:18:01.775Z,23.8076
2023-05-21T11:19:03.855Z,23.5603
2023-05-21T11:21:04.567Z,23.2177
2023-05-21T11:22:07.235Z,23.5461
2023-05-21T11:23:07.745Z,24.0663
2023-05-21T11:24:08.040Z,23.8272
2023-05-21T11:25:10.003Z,23.6520
2023-05-21T11:26:12.105Z,23.6862
2023-05-21T11:28:14.107Z,24.3599
2023-05-21T11:29:15.031Z,24.0969
2023-05-21T11:30:16.170Z,23.8041
2023-05-21T11:31:17.829Z,23.8657
2023-05-21T11:32:19.085Z,24.1111
2023-05-21T11:33:20.299Z,23.7888
2023-05-21T11:34:22.747Z,24.1235
2023-05-21T11:35:22.835Z,24.4781
2023-05-21T11:36:24.071Z,24.5111
2023-05-21T11:37:27.543Z,24.3124
2023-05-21T11:39:27.681Z,24.6278
2023-05-21T11:47:36.728Z,25.1902
2023-05-21T11:49:37.223Z,25.4503
2023-05-21T11:50:38.304Z,25.3725
2023-05-21T11:51:38.369Z,25.2835
2023-05-21T11:52:39.797Z,25.2422
2023-05-21T11:53:44.028Z,25.1534
2023-05-21T11:54:41.995Z,25.3493
2023-05-21T11:56:45.846Z,25.6310
2023-05-21T11:57:47.293Z,25.8703
2023-05-21T11:58:48.111Z,25.5173
2023-05-21T11:59:49.985Z,26.0510
2023-05-21T12:00:52.635Z,26.0716
2023-05-21T12:01:54.134Z,26.2564
2023-05-21T12:02:54.895Z,26.5427
2023-05-21T12:03:56.858Z,26.5629
2023-05-21T12:04:59.150Z,26.7194
2023-05-21T12:06:00.456Z,27.0823
2023-05-21T12:07:01.738Z,27.0119
2023-05-21T12:08:02.126Z,26.9983
2023-05-21T12:09:03.186Z,27.3209
2023-05-21T12:10:04.171Z,27.2178
2023-05-21T12:11:04.858Z,27.4349
2023-05-21T12:15:06.501Z,27.2681
2023-05-21T12:16:07.323Z,27.3418
2023-05-21T12:18:07.451Z,26.9571
2023-05-21T12:19:07.633Z,26.8843
2023-05-21T12:20:08.326Z,26.7454
2023-05-21T12:22:11.408Z,26.9123
2023-05-21T12:23:13.438Z,26.6622
2023-05-21T12:24:14.152Z,26.2661
2023-05-21T12:25:15.257Z,26.1226
2023-05-21T12:26:18.178Z,25.6981
2023-05-21T12:27:19.986Z,26.1145
2023-05-21T12:33:25.323Z,26.4371
2023-05-21T12:34:28.036Z,26.5434
2023-05-21T12:37:31.006Z,26.3059
2023-05-21T12:39:31.442Z,25.8981
2023-05-21T12:40:32.965Z,25.8335
2023-05-21T12:41:34.338Z,25.7481
2023-05-21T12:42:34.826Z,25.6239
2023-05-21T12:43:36.268Z,24.8661
2023-05-21T12:44:38.672Z,25.2479
2023-05-21T12:45:41.312Z,25.6781
2023-05-21T12:46:41.456Z,25.7122
2023-05-21T12:53:50.399Z,25.2315
2023-05-21T12:54:51.718Z,25.0529
2023-05-21T12:55:53.638Z,25.1791
2023-05-21T12:56:56.234Z,25.2947
2023-05-21T12:57:56.972Z,25.3367
2023-05-21T12:59:57.670Z,24.6509
2023-05-21T13:00:59.434Z,24.6197
2023-05-21T13:01:59.631Z,25.2891
2023-05-21T13:03:59.608Z,25.6946
2023-05-21T13:04:59.908Z,25.7061
2023-05-21T13:06:01.987Z,25.3252
2023-05-21T13:07:04.824Z,25.6155
2023-05-21T13:08:04.769Z,26.0085
2023-05-21T13:09:06.382Z,26.2560
2023-05-21T13:10:07.946Z,25.8851
2023-05-21T13:11:10.676Z,25.9901
2023-05-21T13:12:12.726Z,25.6361
2023-05-21T13:14:14.275Z,26.0740
2023-05-21T13:20:19.178Z,26.0459
2023-05-21T13:21:21.089Z,25.7841
2023-05-21T13:22:22.024Z,25.4327
2023-05-21T13:23:24.881Z,25.3107
2023-05-21T13:28:28.155Z,25.2006
2023-05-21T13:29:30.051Z,24.6702
2023-05-21T13:30:30.944Z,24.7892
2023-05-21T13:31:32.742Z,25.3021
2023-05-21T13:32:33.204Z,25.5279
2023-05-21T13:33:35.151Z,25.3180
2023-05-21T13:34:36.150Z,25.1043
2023-05-21T13:35:36.214Z,25.8593
2023-05-21T13:36:37.081Z,25.9748
2023-05-21T13:37:37.064Z,25.6922
2023-05-21T13:38:38.549Z,26.0807
2023-05-21T13:39:39.766Z,26.3080
2023-05-21T13:40:40.365Z,26.7677
2023-05-21T13:41:41.054Z,26.5424
2023-05-21T13:42:41.143Z,26.6256
2023-05-21T13:43:43.686Z,26.1780
2023-05-21T13:44:44.478Z,26.5008
2023-05-21T13:51:51.492Z,25.1089
2023-05-21T13:52:53.676Z,25.1414
2023-05-21T13:53:55.602Z,25.1752
2023-05-21T13:54:55.013Z,24.9547
2023-05-21T13:56:55.412Z,24.6578
2023-05-21T13:57:56.058Z,24.4320
2023-05-21T13:58:56.588Z,24.4974
2023-05-21T13:59:57.246Z,24.3480
2023-05-21T14:01:59.854Z,24.6207
2023-05-21T14:03:01.594Z,24.5031
2023-05-21T14:04:02.243Z,24.0224
2023-05-21T14:05:05.218Z,23.8879
2023-05-21T14:06:06.327Z,24.0696
2023-05-21T14:07:07.600Z,23.6564
2023-05-21T14:09:10.876Z,24.2964
2023-05-21T14:10:12.544Z,24.1393
2023-05-21T14:11:12.852Z,24.0714
2023-05-21T14:12:14.869Z,24.0509
2023-05-21T14:13:19.970Z,24.3241
2023-05-21T14:14:17.532Z,24.8143
2023-05-21T14:15:18.379Z,24.8785
2023-05-21T14:16:20.289Z,25.4235
2023-05-21T14:17:22.433Z,25.9769
2023-05-21T14:18:23.842Z,26.5621
2023-05-21T14:19:24.873Z,26.5817
2023-05-21T14:20:24.889Z,27.0244
2023-05-21T14:21:26.389Z,27.3848
2023-05-21T14:22:26.641Z,27.3464
2023-05-21T14:24:34.361Z,27.7643
2023-05-21T14:29:33.162Z,27.0084
2023-05-21T14:30:33.921Z,26.8751
2023-05-21T14:31:36.092Z,26.8892
2023-05-21T14:32:36.693Z,26.7373
2023-05-21T14:33:37.706Z,26.6313
2023-05-21T14:36:41.983Z,27.0501
2023-05-21T14:37:42.604Z,26.7713
2023-05-21T14:38:43.844Z,26.8689
2023-05-21T14:40:44.101Z,26.9568
2023-05-21T14:41:46.106Z,26.7757
2023-05-21T14:42:48.212Z,26.7591
2023-05-21T14:43:48.786Z,26.9765
2023-05-21T14:44:49.304Z,27.0001
2023-05-21T14:45:50.683Z,27.1473
2023-05-21T14:46:50.703Z,26.6186
2023-05-21T14:47:52.088Z,26.2033
2023-05-21T14:48:53.881Z,26.6669
2023-05-21T14:49:54.844Z,26.4831
2023-05-21T14:50:56.292Z,26.4081
2023-05-21T14:51:58.223Z,25.9037
2023-05-21T14:52:58.546Z,25.5176
2023-05-21T14:53:59.084Z,25.0177
2023-05-21T14:55:01.129Z,24.8511
2023-05-21T14:56:01.144Z,24.6319
2023-05-21T14:57:01.416Z,24.4321
2023-05-21T14:58:03.507Z,24.1041
2023-05-21T14:59:04.958Z,23.9780
2023-05-21T15:00:05.535Z,23.8990
2023-05-21T15:01:06.407Z,23.8320
2023-05-21T15:02:07.193Z,23.5735
2023-05-21T15:03:07.728Z,23.1780
2023-05-21T15:04:08.336Z,23.2183
2023-05-21T15:05:09.552Z,23.1771
2023-05-21T15:07:10.864Z,23.0512
2023-05-21T15:08:12.244Z,22.9359
2023-05-21T15:09:12.991Z,22.8386
2023-05-21T15:10:16.598Z,22.7355
2023-05-21T15:11:16.900Z,22.7971
2023-05-21T15:12:18.317Z,22.8077
2023-05-21T15:14:20.312Z,23.2399
2023-05-21T15:15:20.936Z,23.3957
2023-05-21T15:16:22.220Z,23.2617
2023-05-21T15:18:25.734Z,23.7124
2023-05-21T15:19:26.252Z,24.2594
2023-05-21T15:20:27.090Z,24.6404
2023-05-21T15:21:29.107Z,24.5490
2023-05-21T15:22:30.497Z,24.7352
2023-05-21T15:24:32.649Z,25.6220
2023-05-21T15:25:33.867Z,25.5383
2023-05-21T15:26:34.694Z,25.8335
2023-05-21T15:27:35.573Z,26.0199
2023-05-21T15:28:37.500Z,26.6850
2023-05-21T15:29:38.171Z,26.8935
2023-05-21T15:30:38.886Z,26.9619
2023-05-21T15:31:39.429Z,26.9018
2023-05-21T15:33:40.622Z,27.9110
2023-05-21T15:34:40.662Z,28.6827
2023-05-21T15:35:43.661Z,28.6878
2023-05-21T15:37:44.808Z,28.6153
2023-05-21T15:38:45.262Z,28.7831
2023-05-21T15:40:47.909Z,29.2044
2023-05-21T15:41:49.017Z,29.5281
2023-05-21T15:42:49.641Z,29.5129
2023-05-21T15:43:51.318Z,29.5918
2023-05-21T15:44:52.238Z,29.9837
2023-05-21T15:45:53.266Z,29.8994
2023-05-21T15:46:53.084Z,29.7117
2023-05-21T15:47:54.240Z,29.2750
2023-05-21T15:48:55.948Z,30.0481
2023-05-21T15:49:58.132Z,30.7165
2023-05-21T15:50:58.632Z,30.6302
2023-05-21T15:51:59.981Z,31.1442
2023-05-21T15:53:01.720Z,31.5725
2023-05-21T15:57:34.196Z,29.9836
2023-05-21T15:58:39.025Z,29.9606
2023-05-21T16:07:44.528Z,32.8978
2023-05-21T16:08:45.977Z,32.1646
2023-05-21T16:09:48.290Z,32.1541
2023-05-21T16:10:50.265Z,31.9642
2023-05-21T16:11:52.180Z,31.1721
2023-05-21T16:12:52.363Z,31.3371
2023-05-21T16:13:54.178Z,30.9700
2023-05-21T16:18:30.409Z,29.6180
2023-05-21T16:19:32.836Z,29.5268
2023-05-21T16:21:34.212Z,29.7670
2023-05-21T16:22:34.794Z,29.6486
2023-05-21T16:23:36.510Z,29.2962
2023-05-21T16:24:37.947Z,28.5805
2023-05-21T16:25:39.996Z,28.0299
2023-05-21T16:26:41.814Z,27.5474
2023-05-21T16:28:44.506Z,26.1353
2023-05-21T16:29:46.394Z,25.5492
2023-05-21T16:30:45.976Z,25.4603
2023-05-21T16:31:47.549Z,25.5678
2023-05-21T16:32:48.790Z,25.6384
2023-05-21T16:33:49.688Z,25.6349
2023-05-21T16:34:51.241Z,25.5381
2023-05-21T16:35:54.156Z,25.7093
2023-05-21T16:36:57.166Z,25.6394
2023-05-21T16:38:58.103Z,25.6673
2023-05-21T16:39:59.634Z,25.5570
2023-05-21T16:40:59.644Z,25.7776
2023-05-21T16:42:02.393Z,25.6505
2023-05-21T16:43:04.338Z,25.5567
2023-05-21T16:52:44.730Z,27.2495
2023-05-21T16:53:44.938Z,27.7841
2023-05-21T16:55:48.190Z,27.8927
2023-05-21T16:56:48.555Z,28.2930
2023-05-21T16:58:50.476Z,27.6968
2023-05-21T17:00:51.370Z,26.8248
2023-05-21T17:01:52.005Z,26.0857
2023-05-21T17:03:53.140Z,26.1116
2023-05-21T17:04:52.999Z,25.9736
2023-05-21T17:05:54.769Z,25.9569
2023-05-21T17:06:57.010Z,25.8733
2023-05-21T17:14:06.492Z,23.3203
2023-05-21T17:15:06.942Z,23.0416
2023-05-21T17:16:07.059Z,22.7840
2023-05-21T17:17:09.139Z,22.5580
2023-05-21T17:18:10.979Z,22.4762
2023-05-21T17:19:12.157Z,22.4236
2023-05-21T17:20:13.398Z,22.1368
2023-05-21T17:21:15.180Z,22.3262
2023-05-21T17:22:17.309Z,22.4602
2023-05-21T17:23:19.015Z,22.5226
2023-05-21T17:24:21.024Z,22.6516
2023-05-21T17:25:21.630Z,22.9216